<?xml version="1.0" encoding="UTF-8" standalone="no" ?>
<gpx xmlns="http://www.topografix.com/GPX/1/1" xmlns:xsi="http://www.w3.org/2001/XMLSchema-instance" xsi:schemaLocation="http://www.topografix.com/GPX/1/1 http://www.topografix.com/GPX/1/1/gpx.xsd" version="1.1" creator="VisuGPX - https://www.visugpx.com">
  <metadata>
    <name>13718950-21-09-19 VILLEBOIS</name>
  </metadata>
  <trk>
    <name><![CDATA[13718950-21-09-19 VILLEBOIS]]></name>
    <trkseg>
      <trkpt lat="45.8477" lon="5.43401">
        <ele>246</ele>
        <time>2021-09-17T19:02:49Z</time>
      </trkpt>
      <trkpt lat="45.84895" lon="5.43425">
        <ele>251</ele>
        <time>2021-09-17T19:05:37Z</time>
      </trkpt>
      <trkpt lat="45.84898" lon="5.43416">
        <ele>251</ele>
        <time>2021-09-17T19:05:47Z</time>
      </trkpt>
      <trkpt lat="45.84898" lon="5.43416">
        <ele>251</ele>
        <time>2021-09-17T19:05:47Z</time>
      </trkpt>
      <trkpt lat="45.84902" lon="5.43398">
        <ele>250</ele>
        <time>2021-09-17T19:06:04Z</time>
      </trkpt>
      <trkpt lat="45.84918" lon="5.43346">
        <ele>249</ele>
        <time>2021-09-17T19:06:57Z</time>
      </trkpt>
      <trkpt lat="45.84918" lon="5.43335">
        <ele>249</ele>
        <time>2021-09-17T19:07:07Z</time>
      </trkpt>
      <trkpt lat="45.84909" lon="5.43291">
        <ele>252</ele>
        <time>2021-09-17T19:07:50Z</time>
      </trkpt>
      <trkpt lat="45.84905" lon="5.43284">
        <ele>252</ele>
        <time>2021-09-17T19:07:58Z</time>
      </trkpt>
      <trkpt lat="45.84877" lon="5.43258">
        <ele>252</ele>
        <time>2021-09-17T19:08:43Z</time>
      </trkpt>
      <trkpt lat="45.8487" lon="5.43247">
        <ele>252</ele>
        <time>2021-09-17T19:08:57Z</time>
      </trkpt>
      <trkpt lat="45.84868" lon="5.4322">
        <ele>253</ele>
        <time>2021-09-17T19:09:22Z</time>
      </trkpt>
      <trkpt lat="45.84861" lon="5.43172">
        <ele>254</ele>
        <time>2021-09-17T19:10:07Z</time>
      </trkpt>
      <trkpt lat="45.8485" lon="5.4313">
        <ele>254</ele>
        <time>2021-09-17T19:10:49Z</time>
      </trkpt>
      <trkpt lat="45.84855" lon="5.43056">
        <ele>256</ele>
        <time>2021-09-17T19:11:58Z</time>
      </trkpt>
      <trkpt lat="45.84868" lon="5.4301">
        <ele>257</ele>
        <time>2021-09-17T19:12:44Z</time>
      </trkpt>
      <trkpt lat="45.84884" lon="5.42978">
        <ele>259</ele>
        <time>2021-09-17T19:13:21Z</time>
      </trkpt>
      <trkpt lat="45.84892" lon="5.42917">
        <ele>260</ele>
        <time>2021-09-17T19:14:19Z</time>
      </trkpt>
      <trkpt lat="45.84897" lon="5.42888">
        <ele>259</ele>
        <time>2021-09-17T19:14:46Z</time>
      </trkpt>
      <trkpt lat="45.849" lon="5.42847">
        <ele>259</ele>
        <time>2021-09-17T19:15:25Z</time>
      </trkpt>
      <trkpt lat="45.84881" lon="5.42756">
        <ele>256</ele>
        <time>2021-09-17T19:16:53Z</time>
      </trkpt>
      <trkpt lat="45.84878" lon="5.42713">
        <ele>254</ele>
        <time>2021-09-17T19:17:33Z</time>
      </trkpt>
      <trkpt lat="45.84882" lon="5.42689">
        <ele>254</ele>
        <time>2021-09-17T19:17:56Z</time>
      </trkpt>
      <trkpt lat="45.84894" lon="5.42652">
        <ele>253</ele>
        <time>2021-09-17T19:18:34Z</time>
      </trkpt>
      <trkpt lat="45.84928" lon="5.42612">
        <ele>251</ele>
        <time>2021-09-17T19:19:33Z</time>
      </trkpt>
      <trkpt lat="45.84934" lon="5.42583">
        <ele>249</ele>
        <time>2021-09-17T19:20:01Z</time>
      </trkpt>
      <trkpt lat="45.84937" lon="5.42557">
        <ele>249</ele>
        <time>2021-09-17T19:20:25Z</time>
      </trkpt>
      <trkpt lat="45.8495" lon="5.42511">
        <ele>248</ele>
        <time>2021-09-17T19:21:12Z</time>
      </trkpt>
      <trkpt lat="45.84973" lon="5.42469">
        <ele>249</ele>
        <time>2021-09-17T19:22:01Z</time>
      </trkpt>
      <trkpt lat="45.84976" lon="5.42451">
        <ele>250</ele>
        <time>2021-09-17T19:22:18Z</time>
      </trkpt>
      <trkpt lat="45.84972" lon="5.42385">
        <ele>251</ele>
        <time>2021-09-17T19:23:20Z</time>
      </trkpt>
      <trkpt lat="45.84973" lon="5.42354">
        <ele>252</ele>
        <time>2021-09-17T19:23:49Z</time>
      </trkpt>
      <trkpt lat="45.84977" lon="5.42328">
        <ele>253</ele>
        <time>2021-09-17T19:24:14Z</time>
      </trkpt>
      <trkpt lat="45.84981" lon="5.42317">
        <ele>254</ele>
        <time>2021-09-17T19:24:25Z</time>
      </trkpt>
      <trkpt lat="45.85008" lon="5.42186">
        <ele>256</ele>
        <time>2021-09-17T19:26:32Z</time>
      </trkpt>
      <trkpt lat="45.85021" lon="5.42117">
        <ele>256</ele>
        <time>2021-09-17T19:27:39Z</time>
      </trkpt>
      <trkpt lat="45.85034" lon="5.42074">
        <ele>256</ele>
        <time>2021-09-17T19:28:22Z</time>
      </trkpt>
      <trkpt lat="45.85043" lon="5.42054">
        <ele>256</ele>
        <time>2021-09-17T19:28:44Z</time>
      </trkpt>
      <trkpt lat="45.85053" lon="5.42046">
        <ele>256</ele>
        <time>2021-09-17T19:29:00Z</time>
      </trkpt>
      <trkpt lat="45.85066" lon="5.42025">
        <ele>256</ele>
        <time>2021-09-17T19:29:26Z</time>
      </trkpt>
      <trkpt lat="45.85078" lon="5.41976">
        <ele>255</ele>
        <time>2021-09-17T19:30:14Z</time>
      </trkpt>
      <trkpt lat="45.85086" lon="5.41928">
        <ele>254</ele>
        <time>2021-09-17T19:31:00Z</time>
      </trkpt>
      <trkpt lat="45.85099" lon="5.419">
        <ele>251</ele>
        <time>2021-09-17T19:31:31Z</time>
      </trkpt>
      <trkpt lat="45.85111" lon="5.41886">
        <ele>249</ele>
        <time>2021-09-17T19:31:52Z</time>
      </trkpt>
      <trkpt lat="45.8512" lon="5.41885">
        <ele>250</ele>
        <time>2021-09-17T19:32:04Z</time>
      </trkpt>
      <trkpt lat="45.85126" lon="5.41879">
        <ele>250</ele>
        <time>2021-09-17T19:32:14Z</time>
      </trkpt>
      <trkpt lat="45.8513" lon="5.4187">
        <ele>249</ele>
        <time>2021-09-17T19:32:23Z</time>
      </trkpt>
      <trkpt lat="45.85133" lon="5.41831">
        <ele>243</ele>
        <time>2021-09-17T19:33:00Z</time>
      </trkpt>
      <trkpt lat="45.85156" lon="5.41799">
        <ele>237</ele>
        <time>2021-09-17T19:33:43Z</time>
      </trkpt>
      <trkpt lat="45.85166" lon="5.41776">
        <ele>232</ele>
        <time>2021-09-17T19:34:08Z</time>
      </trkpt>
      <trkpt lat="45.85177" lon="5.4176">
        <ele>229</ele>
        <time>2021-09-17T19:34:29Z</time>
      </trkpt>
      <trkpt lat="45.85203" lon="5.41731">
        <ele>229</ele>
        <time>2021-09-17T19:35:13Z</time>
      </trkpt>
      <trkpt lat="45.85216" lon="5.41707">
        <ele>227</ele>
        <time>2021-09-17T19:35:41Z</time>
      </trkpt>
      <trkpt lat="45.85218" lon="5.41699">
        <ele>225</ele>
        <time>2021-09-17T19:35:49Z</time>
      </trkpt>
      <trkpt lat="45.85203" lon="5.41647">
        <ele>213</ele>
        <time>2021-09-17T19:36:41Z</time>
      </trkpt>
      <trkpt lat="45.85198" lon="5.41633">
        <ele>211</ele>
        <time>2021-09-17T19:36:56Z</time>
      </trkpt>
      <trkpt lat="45.85188" lon="5.4161">
        <ele>208</ele>
        <time>2021-09-17T19:37:21Z</time>
      </trkpt>
      <trkpt lat="45.85191" lon="5.41601">
        <ele>208</ele>
        <time>2021-09-17T19:37:30Z</time>
      </trkpt>
      <trkpt lat="45.85249" lon="5.41549">
        <ele>209</ele>
        <time>2021-09-17T19:39:01Z</time>
      </trkpt>
      <trkpt lat="45.85307" lon="5.4148">
        <ele>207</ele>
        <time>2021-09-17T19:40:42Z</time>
      </trkpt>
      <trkpt lat="45.85355" lon="5.4141">
        <ele>206</ele>
        <time>2021-09-17T19:42:13Z</time>
      </trkpt>
      <trkpt lat="45.85358" lon="5.41401">
        <ele>206</ele>
        <time>2021-09-17T19:42:23Z</time>
      </trkpt>
      <trkpt lat="45.85353" lon="5.41393">
        <ele>205</ele>
        <time>2021-09-17T19:42:33Z</time>
      </trkpt>
      <trkpt lat="45.85418" lon="5.41271">
        <ele>206</ele>
        <time>2021-09-17T19:44:55Z</time>
      </trkpt>
      <trkpt lat="45.85448" lon="5.41311">
        <ele>209</ele>
        <time>2021-09-17T19:45:50Z</time>
      </trkpt>
      <trkpt lat="45.855" lon="5.41322">
        <ele>215</ele>
        <time>2021-09-17T19:47:00Z</time>
      </trkpt>
      <trkpt lat="45.85506" lon="5.4134">
        <ele>216</ele>
        <time>2021-09-17T19:47:19Z</time>
      </trkpt>
      <trkpt lat="45.85518" lon="5.4136">
        <ele>219</ele>
        <time>2021-09-17T19:47:43Z</time>
      </trkpt>
      <trkpt lat="45.85536" lon="5.41379">
        <ele>224</ele>
        <time>2021-09-17T19:48:13Z</time>
      </trkpt>
      <trkpt lat="45.85556" lon="5.41395">
        <ele>228</ele>
        <time>2021-09-17T19:48:44Z</time>
      </trkpt>
      <trkpt lat="45.85577" lon="5.41403">
        <ele>232</ele>
        <time>2021-09-17T19:49:13Z</time>
      </trkpt>
      <trkpt lat="45.85596" lon="5.414">
        <ele>236</ele>
        <time>2021-09-17T19:49:38Z</time>
      </trkpt>
      <trkpt lat="45.85623" lon="5.41385">
        <ele>241</ele>
        <time>2021-09-17T19:50:17Z</time>
      </trkpt>
      <trkpt lat="45.85652" lon="5.41366">
        <ele>246</ele>
        <time>2021-09-17T19:50:59Z</time>
      </trkpt>
      <trkpt lat="45.85668" lon="5.41347">
        <ele>246</ele>
        <time>2021-09-17T19:51:27Z</time>
      </trkpt>
      <trkpt lat="45.85694" lon="5.41334">
        <ele>249</ele>
        <time>2021-09-17T19:52:04Z</time>
      </trkpt>
      <trkpt lat="45.85697" lon="5.41339">
        <ele>251</ele>
        <time>2021-09-17T19:52:10Z</time>
      </trkpt>
      <trkpt lat="45.85694" lon="5.41345">
        <ele>251</ele>
        <time>2021-09-17T19:52:17Z</time>
      </trkpt>
      <trkpt lat="45.85666" lon="5.41383">
        <ele>252</ele>
        <time>2021-09-17T19:53:08Z</time>
      </trkpt>
      <trkpt lat="45.85652" lon="5.41397">
        <ele>251</ele>
        <time>2021-09-17T19:53:31Z</time>
      </trkpt>
      <trkpt lat="45.85621" lon="5.41453">
        <ele>249</ele>
        <time>2021-09-17T19:54:37Z</time>
      </trkpt>
      <trkpt lat="45.85609" lon="5.4147">
        <ele>246</ele>
        <time>2021-09-17T19:55:00Z</time>
      </trkpt>
      <trkpt lat="45.85604" lon="5.41483">
        <ele>246</ele>
        <time>2021-09-17T19:55:14Z</time>
      </trkpt>
      <trkpt lat="45.85603" lon="5.41504">
        <ele>247</ele>
        <time>2021-09-17T19:55:33Z</time>
      </trkpt>
      <trkpt lat="45.85613" lon="5.41548">
        <ele>252</ele>
        <time>2021-09-17T19:56:16Z</time>
      </trkpt>
      <trkpt lat="45.85658" lon="5.4166">
        <ele>266</ele>
        <time>2021-09-17T19:58:16Z</time>
      </trkpt>
      <trkpt lat="45.85664" lon="5.41682">
        <ele>268</ele>
        <time>2021-09-17T19:58:38Z</time>
      </trkpt>
      <trkpt lat="45.85673" lon="5.41703">
        <ele>271</ele>
        <time>2021-09-17T19:59:01Z</time>
      </trkpt>
      <trkpt lat="45.85688" lon="5.41721">
        <ele>274</ele>
        <time>2021-09-17T19:59:27Z</time>
      </trkpt>
      <trkpt lat="45.85699" lon="5.41752">
        <ele>277</ele>
        <time>2021-09-17T20:00:00Z</time>
      </trkpt>
      <trkpt lat="45.85692" lon="5.41794">
        <ele>276</ele>
        <time>2021-09-17T20:00:40Z</time>
      </trkpt>
      <trkpt lat="45.85691" lon="5.4184">
        <ele>276</ele>
        <time>2021-09-17T20:01:23Z</time>
      </trkpt>
      <trkpt lat="45.85706" lon="5.41931">
        <ele>278</ele>
        <time>2021-09-17T20:02:50Z</time>
      </trkpt>
      <trkpt lat="45.85705" lon="5.42014">
        <ele>281</ele>
        <time>2021-09-17T20:04:07Z</time>
      </trkpt>
      <trkpt lat="45.85706" lon="5.42041">
        <ele>282</ele>
        <time>2021-09-17T20:04:32Z</time>
      </trkpt>
      <trkpt lat="45.85715" lon="5.42117">
        <ele>284</ele>
        <time>2021-09-17T20:05:43Z</time>
      </trkpt>
      <trkpt lat="45.85712" lon="5.42223">
        <ele>284</ele>
        <time>2021-09-17T20:07:22Z</time>
      </trkpt>
      <trkpt lat="45.85715" lon="5.42247">
        <ele>284</ele>
        <time>2021-09-17T20:07:45Z</time>
      </trkpt>
      <trkpt lat="45.85724" lon="5.42266">
        <ele>285</ele>
        <time>2021-09-17T20:08:06Z</time>
      </trkpt>
      <trkpt lat="45.85738" lon="5.42296">
        <ele>287</ele>
        <time>2021-09-17T20:08:40Z</time>
      </trkpt>
      <trkpt lat="45.85742" lon="5.42316">
        <ele>288</ele>
        <time>2021-09-17T20:08:59Z</time>
      </trkpt>
      <trkpt lat="45.85738" lon="5.42342">
        <ele>288</ele>
        <time>2021-09-17T20:09:24Z</time>
      </trkpt>
      <trkpt lat="45.8572" lon="5.42396">
        <ele>288</ele>
        <time>2021-09-17T20:10:19Z</time>
      </trkpt>
      <trkpt lat="45.85716" lon="5.42437">
        <ele>289</ele>
        <time>2021-09-17T20:10:58Z</time>
      </trkpt>
      <trkpt lat="45.85715" lon="5.42533">
        <ele>292</ele>
        <time>2021-09-17T20:12:27Z</time>
      </trkpt>
      <trkpt lat="45.85719" lon="5.42605">
        <ele>295</ele>
        <time>2021-09-17T20:13:34Z</time>
      </trkpt>
      <trkpt lat="45.85724" lon="5.42644">
        <ele>297</ele>
        <time>2021-09-17T20:14:11Z</time>
      </trkpt>
      <trkpt lat="45.85773" lon="5.42892">
        <ele>300</ele>
        <time>2021-09-17T20:18:11Z</time>
      </trkpt>
      <trkpt lat="45.85745" lon="5.42948">
        <ele>298</ele>
        <time>2021-09-17T20:19:15Z</time>
      </trkpt>
      <trkpt lat="45.8574" lon="5.42966">
        <ele>297</ele>
        <time>2021-09-17T20:19:33Z</time>
      </trkpt>
      <trkpt lat="45.85738" lon="5.42999">
        <ele>296</ele>
        <time>2021-09-17T20:20:03Z</time>
      </trkpt>
      <trkpt lat="45.85724" lon="5.4305">
        <ele>295</ele>
        <time>2021-09-17T20:20:54Z</time>
      </trkpt>
      <trkpt lat="45.85687" lon="5.43113">
        <ele>293</ele>
        <time>2021-09-17T20:22:11Z</time>
      </trkpt>
      <trkpt lat="45.85651" lon="5.43145">
        <ele>291</ele>
        <time>2021-09-17T20:23:08Z</time>
      </trkpt>
      <trkpt lat="45.85635" lon="5.43155">
        <ele>290</ele>
        <time>2021-09-17T20:23:31Z</time>
      </trkpt>
      <trkpt lat="45.85633" lon="5.43159">
        <ele>290</ele>
        <time>2021-09-17T20:23:35Z</time>
      </trkpt>
      <trkpt lat="45.85629" lon="5.43168">
        <ele>290</ele>
        <time>2021-09-17T20:23:45Z</time>
      </trkpt>
      <trkpt lat="45.85628" lon="5.43218">
        <ele>289</ele>
        <time>2021-09-17T20:24:32Z</time>
      </trkpt>
      <trkpt lat="45.85612" lon="5.43304">
        <ele>287</ele>
        <time>2021-09-17T20:25:55Z</time>
      </trkpt>
      <trkpt lat="45.85624" lon="5.43333">
        <ele>287</ele>
        <time>2021-09-17T20:26:26Z</time>
      </trkpt>
      <trkpt lat="45.85654" lon="5.43359">
        <ele>290</ele>
        <time>2021-09-17T20:27:13Z</time>
      </trkpt>
      <trkpt lat="45.85671" lon="5.43365">
        <ele>292</ele>
        <time>2021-09-17T20:27:36Z</time>
      </trkpt>
      <trkpt lat="45.85745" lon="5.43443">
        <ele>307</ele>
        <time>2021-09-17T20:29:39Z</time>
      </trkpt>
      <trkpt lat="45.85745" lon="5.43483">
        <ele>309</ele>
        <time>2021-09-17T20:30:16Z</time>
      </trkpt>
      <trkpt lat="45.85749" lon="5.43511">
        <ele>311</ele>
        <time>2021-09-17T20:30:42Z</time>
      </trkpt>
      <trkpt lat="45.85762" lon="5.43542">
        <ele>315</ele>
        <time>2021-09-17T20:31:16Z</time>
      </trkpt>
      <trkpt lat="45.85821" lon="5.43653">
        <ele>328</ele>
        <time>2021-09-17T20:33:26Z</time>
      </trkpt>
      <trkpt lat="45.8584" lon="5.43693">
        <ele>337</ele>
        <time>2021-09-17T20:34:11Z</time>
      </trkpt>
      <trkpt lat="45.85854" lon="5.43712">
        <ele>344</ele>
        <time>2021-09-17T20:34:36Z</time>
      </trkpt>
      <trkpt lat="45.85886" lon="5.43736">
        <ele>356</ele>
        <time>2021-09-17T20:35:25Z</time>
      </trkpt>
      <trkpt lat="45.85906" lon="5.43747">
        <ele>363</ele>
        <time>2021-09-17T20:35:53Z</time>
      </trkpt>
      <trkpt lat="45.85924" lon="5.43762">
        <ele>373</ele>
        <time>2021-09-17T20:36:21Z</time>
      </trkpt>
      <trkpt lat="45.85945" lon="5.43768">
        <ele>383</ele>
        <time>2021-09-17T20:36:49Z</time>
      </trkpt>
      <trkpt lat="45.85975" lon="5.43766">
        <ele>392</ele>
        <time>2021-09-17T20:37:30Z</time>
      </trkpt>
      <trkpt lat="45.85985" lon="5.43755">
        <ele>391</ele>
        <time>2021-09-17T20:37:46Z</time>
      </trkpt>
      <trkpt lat="45.86001" lon="5.43712">
        <ele>392</ele>
        <time>2021-09-17T20:38:32Z</time>
      </trkpt>
      <trkpt lat="45.86021" lon="5.43692">
        <ele>398</ele>
        <time>2021-09-17T20:39:04Z</time>
      </trkpt>
      <trkpt lat="45.86028" lon="5.43683">
        <ele>399</ele>
        <time>2021-09-17T20:39:17Z</time>
      </trkpt>
      <trkpt lat="45.86034" lon="5.43682">
        <ele>401</ele>
        <time>2021-09-17T20:39:25Z</time>
      </trkpt>
      <trkpt lat="45.86035" lon="5.43687">
        <ele>403</ele>
        <time>2021-09-17T20:39:30Z</time>
      </trkpt>
      <trkpt lat="45.86026" lon="5.43702">
        <ele>401</ele>
        <time>2021-09-17T20:39:48Z</time>
      </trkpt>
      <trkpt lat="45.86011" lon="5.43718">
        <ele>397</ele>
        <time>2021-09-17T20:40:13Z</time>
      </trkpt>
      <trkpt lat="45.85998" lon="5.43765">
        <ele>400</ele>
        <time>2021-09-17T20:41:00Z</time>
      </trkpt>
      <trkpt lat="45.85989" lon="5.43783">
        <ele>405</ele>
        <time>2021-09-17T20:41:21Z</time>
      </trkpt>
      <trkpt lat="45.85961" lon="5.43814">
        <ele>407</ele>
        <time>2021-09-17T20:42:08Z</time>
      </trkpt>
      <trkpt lat="45.85939" lon="5.43834">
        <ele>406</ele>
        <time>2021-09-17T20:42:42Z</time>
      </trkpt>
      <trkpt lat="45.85913" lon="5.43845">
        <ele>401</ele>
        <time>2021-09-17T20:43:19Z</time>
      </trkpt>
      <trkpt lat="45.85898" lon="5.43855">
        <ele>400</ele>
        <time>2021-09-17T20:43:41Z</time>
      </trkpt>
      <trkpt lat="45.85879" lon="5.43878">
        <ele>402</ele>
        <time>2021-09-17T20:44:14Z</time>
      </trkpt>
      <trkpt lat="45.85855" lon="5.43898">
        <ele>401</ele>
        <time>2021-09-17T20:44:51Z</time>
      </trkpt>
      <trkpt lat="45.85837" lon="5.43906">
        <ele>396</ele>
        <time>2021-09-17T20:45:16Z</time>
      </trkpt>
      <trkpt lat="45.85826" lon="5.43925">
        <ele>397</ele>
        <time>2021-09-17T20:45:39Z</time>
      </trkpt>
      <trkpt lat="45.85776" lon="5.44056">
        <ele>406</ele>
        <time>2021-09-17T20:47:58Z</time>
      </trkpt>
      <trkpt lat="45.85763" lon="5.44085">
        <ele>410</ele>
        <time>2021-09-17T20:48:30Z</time>
      </trkpt>
      <trkpt lat="45.8575" lon="5.44104">
        <ele>409</ele>
        <time>2021-09-17T20:48:55Z</time>
      </trkpt>
      <trkpt lat="45.85737" lon="5.44132">
        <ele>408</ele>
        <time>2021-09-17T20:49:26Z</time>
      </trkpt>
      <trkpt lat="45.85729" lon="5.44146">
        <ele>407</ele>
        <time>2021-09-17T20:49:43Z</time>
      </trkpt>
      <trkpt lat="45.85725" lon="5.44159">
        <ele>408</ele>
        <time>2021-09-17T20:49:56Z</time>
      </trkpt>
      <trkpt lat="45.85724" lon="5.44174">
        <ele>410</ele>
        <time>2021-09-17T20:50:10Z</time>
      </trkpt>
      <trkpt lat="45.85726" lon="5.44181">
        <ele>412</ele>
        <time>2021-09-17T20:50:17Z</time>
      </trkpt>
      <trkpt lat="45.85724" lon="5.44174">
        <ele>410</ele>
        <time>2021-09-17T20:50:24Z</time>
      </trkpt>
      <trkpt lat="45.85723" lon="5.44181">
        <ele>410</ele>
        <time>2021-09-17T20:50:31Z</time>
      </trkpt>
      <trkpt lat="45.85729" lon="5.44208">
        <ele>415</ele>
        <time>2021-09-17T20:50:57Z</time>
      </trkpt>
      <trkpt lat="45.85743" lon="5.44252">
        <ele>426</ele>
        <time>2021-09-17T20:51:42Z</time>
      </trkpt>
      <trkpt lat="45.85743" lon="5.44287">
        <ele>429</ele>
        <time>2021-09-17T20:52:14Z</time>
      </trkpt>
      <trkpt lat="45.85737" lon="5.44386">
        <ele>432</ele>
        <time>2021-09-17T20:53:47Z</time>
      </trkpt>
      <trkpt lat="45.85734" lon="5.44466">
        <ele>434</ele>
        <time>2021-09-17T20:55:01Z</time>
      </trkpt>
      <trkpt lat="45.85742" lon="5.44532">
        <ele>442</ele>
        <time>2021-09-17T20:56:04Z</time>
      </trkpt>
      <trkpt lat="45.85739" lon="5.44555">
        <ele>446</ele>
        <time>2021-09-17T20:56:25Z</time>
      </trkpt>
      <trkpt lat="45.85733" lon="5.44574">
        <ele>447</ele>
        <time>2021-09-17T20:56:45Z</time>
      </trkpt>
      <trkpt lat="45.85702" lon="5.44615">
        <ele>444</ele>
        <time>2021-09-17T20:57:41Z</time>
      </trkpt>
      <trkpt lat="45.8569" lon="5.44616">
        <ele>440</ele>
        <time>2021-09-17T20:57:57Z</time>
      </trkpt>
      <trkpt lat="45.85682" lon="5.44626">
        <ele>439</ele>
        <time>2021-09-17T20:58:11Z</time>
      </trkpt>
      <trkpt lat="45.85675" lon="5.44639">
        <ele>438</ele>
        <time>2021-09-17T20:58:26Z</time>
      </trkpt>
      <trkpt lat="45.85669" lon="5.4467">
        <ele>441</ele>
        <time>2021-09-17T20:58:56Z</time>
      </trkpt>
      <trkpt lat="45.85674" lon="5.44686">
        <ele>444</ele>
        <time>2021-09-17T20:59:13Z</time>
      </trkpt>
      <trkpt lat="45.85666" lon="5.44688">
        <ele>441</ele>
        <time>2021-09-17T20:59:23Z</time>
      </trkpt>
      <trkpt lat="45.85652" lon="5.44715">
        <ele>440</ele>
        <time>2021-09-17T20:59:55Z</time>
      </trkpt>
      <trkpt lat="45.85642" lon="5.44719">
        <ele>438</ele>
        <time>2021-09-17T21:00:09Z</time>
      </trkpt>
      <trkpt lat="45.85642" lon="5.44741">
        <ele>440</ele>
        <time>2021-09-17T21:00:29Z</time>
      </trkpt>
      <trkpt lat="45.85647" lon="5.44771">
        <ele>443</ele>
        <time>2021-09-17T21:00:58Z</time>
      </trkpt>
      <trkpt lat="45.85645" lon="5.44786">
        <ele>444</ele>
        <time>2021-09-17T21:01:12Z</time>
      </trkpt>
      <trkpt lat="45.8565" lon="5.44802">
        <ele>447</ele>
        <time>2021-09-17T21:01:28Z</time>
      </trkpt>
      <trkpt lat="45.8565" lon="5.44816">
        <ele>448</ele>
        <time>2021-09-17T21:01:41Z</time>
      </trkpt>
      <trkpt lat="45.8565" lon="5.44802">
        <ele>447</ele>
        <time>2021-09-17T21:01:54Z</time>
      </trkpt>
      <trkpt lat="45.85645" lon="5.44786">
        <ele>444</ele>
        <time>2021-09-17T21:02:11Z</time>
      </trkpt>
      <trkpt lat="45.85647" lon="5.44771">
        <ele>443</ele>
        <time>2021-09-17T21:02:25Z</time>
      </trkpt>
      <trkpt lat="45.85642" lon="5.44741">
        <ele>440</ele>
        <time>2021-09-17T21:02:53Z</time>
      </trkpt>
      <trkpt lat="45.85642" lon="5.44719">
        <ele>438</ele>
        <time>2021-09-17T21:03:14Z</time>
      </trkpt>
      <trkpt lat="45.8565" lon="5.44679">
        <ele>436</ele>
        <time>2021-09-17T21:03:53Z</time>
      </trkpt>
      <trkpt lat="45.85648" lon="5.44669">
        <ele>435</ele>
        <time>2021-09-17T21:04:02Z</time>
      </trkpt>
      <trkpt lat="45.85639" lon="5.44641">
        <ele>428</ele>
        <time>2021-09-17T21:04:31Z</time>
      </trkpt>
      <trkpt lat="45.85627" lon="5.44638">
        <ele>425</ele>
        <time>2021-09-17T21:04:47Z</time>
      </trkpt>
      <trkpt lat="45.85618" lon="5.44631">
        <ele>422</ele>
        <time>2021-09-17T21:05:01Z</time>
      </trkpt>
      <trkpt lat="45.85599" lon="5.44624">
        <ele>416</ele>
        <time>2021-09-17T21:05:27Z</time>
      </trkpt>
      <trkpt lat="45.85583" lon="5.44575">
        <ele>406</ele>
        <time>2021-09-17T21:06:17Z</time>
      </trkpt>
      <trkpt lat="45.85581" lon="5.44554">
        <ele>405</ele>
        <time>2021-09-17T21:06:37Z</time>
      </trkpt>
      <trkpt lat="45.85582" lon="5.44539">
        <ele>403</ele>
        <time>2021-09-17T21:06:51Z</time>
      </trkpt>
      <trkpt lat="45.85579" lon="5.44529">
        <ele>403</ele>
        <time>2021-09-17T21:07:01Z</time>
      </trkpt>
      <trkpt lat="45.85575" lon="5.44525">
        <ele>402</ele>
        <time>2021-09-17T21:07:08Z</time>
      </trkpt>
      <trkpt lat="45.85538" lon="5.44533">
        <ele>404</ele>
        <time>2021-09-17T21:07:57Z</time>
      </trkpt>
      <trkpt lat="45.85525" lon="5.44545">
        <ele>404</ele>
        <time>2021-09-17T21:08:18Z</time>
      </trkpt>
      <trkpt lat="45.855" lon="5.44561">
        <ele>403</ele>
        <time>2021-09-17T21:08:55Z</time>
      </trkpt>
      <trkpt lat="45.85495" lon="5.44559">
        <ele>405</ele>
        <time>2021-09-17T21:09:02Z</time>
      </trkpt>
      <trkpt lat="45.85492" lon="5.44552">
        <ele>406</ele>
        <time>2021-09-17T21:09:09Z</time>
      </trkpt>
      <trkpt lat="45.85495" lon="5.44541">
        <ele>406</ele>
        <time>2021-09-17T21:09:20Z</time>
      </trkpt>
      <trkpt lat="45.8551" lon="5.4451">
        <ele>406</ele>
        <time>2021-09-17T21:09:55Z</time>
      </trkpt>
      <trkpt lat="45.85531" lon="5.44491">
        <ele>406</ele>
        <time>2021-09-17T21:10:28Z</time>
      </trkpt>
      <trkpt lat="45.85542" lon="5.44466">
        <ele>407</ele>
        <time>2021-09-17T21:10:56Z</time>
      </trkpt>
      <trkpt lat="45.85545" lon="5.44445">
        <ele>408</ele>
        <time>2021-09-17T21:11:16Z</time>
      </trkpt>
      <trkpt lat="45.85542" lon="5.44401">
        <ele>413</ele>
        <time>2021-09-17T21:11:57Z</time>
      </trkpt>
      <trkpt lat="45.85545" lon="5.44377">
        <ele>414</ele>
        <time>2021-09-17T21:12:20Z</time>
      </trkpt>
      <trkpt lat="45.85566" lon="5.44308">
        <ele>408</ele>
        <time>2021-09-17T21:13:30Z</time>
      </trkpt>
      <trkpt lat="45.85568" lon="5.44292">
        <ele>407</ele>
        <time>2021-09-17T21:13:45Z</time>
      </trkpt>
      <trkpt lat="45.85565" lon="5.44272">
        <ele>407</ele>
        <time>2021-09-17T21:14:04Z</time>
      </trkpt>
      <trkpt lat="45.85557" lon="5.44251">
        <ele>410</ele>
        <time>2021-09-17T21:14:26Z</time>
      </trkpt>
      <trkpt lat="45.85531" lon="5.44215">
        <ele>417</ele>
        <time>2021-09-17T21:15:14Z</time>
      </trkpt>
      <trkpt lat="45.85517" lon="5.44202">
        <ele>423</ele>
        <time>2021-09-17T21:15:36Z</time>
      </trkpt>
      <trkpt lat="45.85518" lon="5.44182">
        <ele>421</ele>
        <time>2021-09-17T21:15:55Z</time>
      </trkpt>
      <trkpt lat="45.85517" lon="5.44168">
        <ele>420</ele>
        <time>2021-09-17T21:16:08Z</time>
      </trkpt>
      <trkpt lat="45.85536" lon="5.44092">
        <ele>410</ele>
        <time>2021-09-17T21:17:23Z</time>
      </trkpt>
      <trkpt lat="45.85536" lon="5.44072">
        <ele>411</ele>
        <time>2021-09-17T21:17:42Z</time>
      </trkpt>
      <trkpt lat="45.8554" lon="5.44045">
        <ele>410</ele>
        <time>2021-09-17T21:18:07Z</time>
      </trkpt>
      <trkpt lat="45.85539" lon="5.43965">
        <ele>415</ele>
        <time>2021-09-17T21:19:22Z</time>
      </trkpt>
      <trkpt lat="45.85546" lon="5.43917">
        <ele>410</ele>
        <time>2021-09-17T21:20:07Z</time>
      </trkpt>
      <trkpt lat="45.85546" lon="5.43899">
        <ele>411</ele>
        <time>2021-09-17T21:20:24Z</time>
      </trkpt>
      <trkpt lat="45.85543" lon="5.4387">
        <ele>416</ele>
        <time>2021-09-17T21:20:51Z</time>
      </trkpt>
      <trkpt lat="45.85544" lon="5.43846">
        <ele>417</ele>
        <time>2021-09-17T21:21:14Z</time>
      </trkpt>
      <trkpt lat="45.85549" lon="5.43822">
        <ele>410</ele>
        <time>2021-09-17T21:21:37Z</time>
      </trkpt>
      <trkpt lat="45.85551" lon="5.43803">
        <ele>404</ele>
        <time>2021-09-17T21:21:55Z</time>
      </trkpt>
      <trkpt lat="45.85552" lon="5.43786">
        <ele>400</ele>
        <time>2021-09-17T21:22:11Z</time>
      </trkpt>
      <trkpt lat="45.85549" lon="5.43769">
        <ele>398</ele>
        <time>2021-09-17T21:22:27Z</time>
      </trkpt>
      <trkpt lat="45.8554" lon="5.43744">
        <ele>395</ele>
        <time>2021-09-17T21:22:53Z</time>
      </trkpt>
      <trkpt lat="45.85524" lon="5.43718">
        <ele>388</ele>
        <time>2021-09-17T21:23:25Z</time>
      </trkpt>
      <trkpt lat="45.85494" lon="5.43693">
        <ele>381</ele>
        <time>2021-09-17T21:24:12Z</time>
      </trkpt>
      <trkpt lat="45.85475" lon="5.4369">
        <ele>380</ele>
        <time>2021-09-17T21:24:37Z</time>
      </trkpt>
      <trkpt lat="45.85433" lon="5.437">
        <ele>386</ele>
        <time>2021-09-17T21:25:34Z</time>
      </trkpt>
      <trkpt lat="45.85362" lon="5.43709">
        <ele>381</ele>
        <time>2021-09-17T21:27:09Z</time>
      </trkpt>
      <trkpt lat="45.85309" lon="5.43726">
        <ele>379</ele>
        <time>2021-09-17T21:28:22Z</time>
      </trkpt>
      <trkpt lat="45.85289" lon="5.43739">
        <ele>381</ele>
        <time>2021-09-17T21:28:51Z</time>
      </trkpt>
      <trkpt lat="45.85226" lon="5.43767">
        <ele>378</ele>
        <time>2021-09-17T21:30:19Z</time>
      </trkpt>
      <trkpt lat="45.85161" lon="5.43773">
        <ele>364</ele>
        <time>2021-09-17T21:31:46Z</time>
      </trkpt>
      <trkpt lat="45.85138" lon="5.43784">
        <ele>362</ele>
        <time>2021-09-17T21:32:18Z</time>
      </trkpt>
      <trkpt lat="45.85106" lon="5.43804">
        <ele>362</ele>
        <time>2021-09-17T21:33:05Z</time>
      </trkpt>
      <trkpt lat="45.85085" lon="5.43812">
        <ele>361</ele>
        <time>2021-09-17T21:33:34Z</time>
      </trkpt>
      <trkpt lat="45.85011" lon="5.43825">
        <ele>351</ele>
        <time>2021-09-17T21:35:13Z</time>
      </trkpt>
      <trkpt lat="45.85012" lon="5.43819">
        <ele>349</ele>
        <time>2021-09-17T21:35:19Z</time>
      </trkpt>
      <trkpt lat="45.85011" lon="5.43825">
        <ele>351</ele>
        <time>2021-09-17T21:35:25Z</time>
      </trkpt>
      <trkpt lat="45.84989" lon="5.43836">
        <ele>350</ele>
        <time>2021-09-17T21:35:56Z</time>
      </trkpt>
      <trkpt lat="45.84925" lon="5.4386">
        <ele>345</ele>
        <time>2021-09-17T21:37:24Z</time>
      </trkpt>
      <trkpt lat="45.8489" lon="5.4388">
        <ele>344</ele>
        <time>2021-09-17T21:38:14Z</time>
      </trkpt>
      <trkpt lat="45.8485" lon="5.43893">
        <ele>341</ele>
        <time>2021-09-17T21:39:09Z</time>
      </trkpt>
      <trkpt lat="45.84799" lon="5.43885">
        <ele>330</ele>
        <time>2021-09-17T21:40:17Z</time>
      </trkpt>
      <trkpt lat="45.84777" lon="5.43896">
        <ele>328</ele>
        <time>2021-09-17T21:40:49Z</time>
      </trkpt>
      <trkpt lat="45.84763" lon="5.439">
        <ele>327</ele>
        <time>2021-09-17T21:41:08Z</time>
      </trkpt>
      <trkpt lat="45.84722" lon="5.43898">
        <ele>319</ele>
        <time>2021-09-17T21:42:02Z</time>
      </trkpt>
      <trkpt lat="45.84707" lon="5.43903">
        <ele>318</ele>
        <time>2021-09-17T21:42:23Z</time>
      </trkpt>
      <trkpt lat="45.84663" lon="5.43933">
        <ele>319</ele>
        <time>2021-09-17T21:43:28Z</time>
      </trkpt>
      <trkpt lat="45.84645" lon="5.43938">
        <ele>317</ele>
        <time>2021-09-17T21:43:52Z</time>
      </trkpt>
      <trkpt lat="45.84612" lon="5.43938">
        <ele>311</ele>
        <time>2021-09-17T21:44:36Z</time>
      </trkpt>
      <trkpt lat="45.8457" lon="5.43952">
        <ele>309</ele>
        <time>2021-09-17T21:45:34Z</time>
      </trkpt>
      <trkpt lat="45.84592" lon="5.43934">
        <ele>306</ele>
        <time>2021-09-17T21:46:08Z</time>
      </trkpt>
      <trkpt lat="45.84597" lon="5.43926">
        <ele>305</ele>
        <time>2021-09-17T21:46:18Z</time>
      </trkpt>
      <trkpt lat="45.84628" lon="5.43807">
        <ele>280</ele>
        <time>2021-09-17T21:48:16Z</time>
      </trkpt>
      <trkpt lat="45.84641" lon="5.43789">
        <ele>278</ele>
        <time>2021-09-17T21:48:40Z</time>
      </trkpt>
      <trkpt lat="45.84643" lon="5.43781">
        <ele>276</ele>
        <time>2021-09-17T21:48:48Z</time>
      </trkpt>
      <trkpt lat="45.84644" lon="5.43736">
        <ele>266</ele>
        <time>2021-09-17T21:49:30Z</time>
      </trkpt>
      <trkpt lat="45.84646" lon="5.43729">
        <ele>265</ele>
        <time>2021-09-17T21:49:37Z</time>
      </trkpt>
      <trkpt lat="45.84658" lon="5.4371">
        <ele>262</ele>
        <time>2021-09-17T21:50:01Z</time>
      </trkpt>
      <trkpt lat="45.84663" lon="5.43691">
        <ele>258</ele>
        <time>2021-09-17T21:50:19Z</time>
      </trkpt>
      <trkpt lat="45.84666" lon="5.43677">
        <ele>254</ele>
        <time>2021-09-17T21:50:33Z</time>
      </trkpt>
      <trkpt lat="45.84666" lon="5.43648">
        <ele>250</ele>
        <time>2021-09-17T21:51:00Z</time>
      </trkpt>
      <trkpt lat="45.84669" lon="5.43645">
        <ele>250</ele>
        <time>2021-09-17T21:51:05Z</time>
      </trkpt>
      <trkpt lat="45.84687" lon="5.43637">
        <ele>250</ele>
        <time>2021-09-17T21:51:30Z</time>
      </trkpt>
      <trkpt lat="45.84694" lon="5.43592">
        <ele>246</ele>
        <time>2021-09-17T21:52:13Z</time>
      </trkpt>
      <trkpt lat="45.847" lon="5.43589">
        <ele>246</ele>
        <time>2021-09-17T21:52:21Z</time>
      </trkpt>
      <trkpt lat="45.847" lon="5.43556">
        <ele>246</ele>
        <time>2021-09-17T21:52:52Z</time>
      </trkpt>
      <trkpt lat="45.84698" lon="5.43537">
        <ele>246</ele>
        <time>2021-09-17T21:53:10Z</time>
      </trkpt>
      <trkpt lat="45.84691" lon="5.43508">
        <ele>246</ele>
        <time>2021-09-17T21:53:38Z</time>
      </trkpt>
      <trkpt lat="45.84681" lon="5.43396">
        <ele>244</ele>
        <time>2021-09-17T21:55:23Z</time>
      </trkpt>
      <trkpt lat="45.84679" lon="5.43389">
        <ele>244</ele>
        <time>2021-09-17T21:55:30Z</time>
      </trkpt>
      <trkpt lat="45.84681" lon="5.43384">
        <ele>244</ele>
        <time>2021-09-17T21:55:36Z</time>
      </trkpt>
      <trkpt lat="45.84697" lon="5.4339">
        <ele>244</ele>
        <time>2021-09-17T21:55:58Z</time>
      </trkpt>
      <trkpt lat="45.8476" lon="5.43399">
        <ele>246</ele>
        <time>2021-09-17T21:57:22Z</time>
      </trkpt>
    </trkseg>
  </trk>
</gpx>